createdAt,value
2018-08-17T00:01:42.483Z,12.88
2018-08-17T00:04:11.966Z,12.93
2018-08-17T00:06:41.895Z,12.93
2018-08-17T00:09:13.164Z,14.00
2018-08-17T00:11:42.583Z,11.47
2018-08-17T00:14:11.954Z,10.07
2018-08-17T00:16:41.823Z,9.03
2018-08-17T00:19:11.752Z,9.20
2018-08-17T00:21:41.750Z,9.30
2018-08-17T00:24:11.771Z,9.50
2018-08-17T00:26:41.832Z,9.23
2018-08-17T00:29:11.830Z,8.85
2018-08-17T00:31:41.865Z,9.15
2018-08-17T00:34:11.762Z,10.18
2018-08-17T00:36:41.816Z,8.70
2018-08-17T00:39:12.058Z,8.65
2018-08-17T00:41:42.170Z,9.50
2018-08-17T00:44:11.822Z,7.75
2018-08-17T00:46:41.872Z,8.38
2018-08-17T00:49:11.929Z,8.83
2018-08-17T00:51:41.915Z,9.28
2018-08-17T00:54:11.769Z,9.43
2018-08-17T00:56:41.866Z,10.87
2018-08-17T00:59:11.846Z,10.50
2018-08-17T01:01:41.927Z,10.60
2018-08-17T01:04:11.815Z,11.20
2018-08-17T01:06:41.858Z,10.75
2018-08-17T01:09:11.854Z,11.45
2018-08-17T01:11:41.928Z,10.85
2018-08-17T01:14:11.920Z,10.88
2018-08-17T01:16:41.921Z,10.87
2018-08-17T01:19:11.915Z,10.43
2018-08-17T01:21:42.232Z,10.50
2018-08-17T01:24:11.944Z,9.10
2018-08-17T01:26:41.859Z,8.05
2018-08-17T01:29:12.028Z,7.00
2018-08-17T01:31:41.956Z,7.78
2018-08-17T01:34:11.980Z,7.67
2018-08-17T01:36:41.861Z,8.23
2018-08-17T01:39:11.917Z,8.47
2018-08-17T01:41:42.390Z,8.85
2018-08-17T01:44:11.898Z,8.70
2018-08-17T01:46:41.904Z,9.88
2018-08-17T01:49:11.997Z,10.05
2018-08-17T01:51:41.928Z,10.85
2018-08-17T01:54:12.018Z,11.40
2018-08-17T01:56:42.496Z,11.48
2018-08-17T01:59:11.977Z,11.08
2018-08-17T02:01:41.941Z,10.85
2018-08-17T02:04:12.004Z,12.45
2018-08-17T02:06:42.058Z,10.20
2018-08-17T02:09:13.023Z,9.33
2018-08-17T02:11:42.653Z,8.77
2018-08-17T02:14:12.048Z,9.05
2018-08-17T02:16:42.013Z,7.95
2018-08-17T02:19:12.099Z,9.13
2018-08-17T02:21:42.044Z,12.35
2018-08-17T02:24:12.085Z,10.82
2018-08-17T02:26:42.001Z,9.73
2018-08-17T02:29:11.991Z,9.20
2018-08-17T02:31:42.044Z,9.25
2018-08-17T02:34:12.063Z,8.95
2018-08-17T02:36:42.043Z,8.70
2018-08-17T02:39:12.073Z,9.80
2018-08-17T02:41:42.130Z,10.60
2018-08-17T02:44:12.099Z,9.98
2018-08-17T02:46:42.173Z,9.50
2018-08-17T02:49:12.094Z,10.58
2018-08-17T02:51:42.076Z,10.15
2018-08-17T02:54:12.058Z,9.20
2018-08-17T02:56:42.128Z,9.70
2018-08-17T02:59:12.166Z,9.48
2018-08-17T03:01:42.186Z,9.68
2018-08-17T03:04:12.111Z,9.90
2018-08-17T03:06:42.112Z,9.65
2018-08-17T03:09:12.661Z,10.08
2018-08-17T03:11:42.418Z,10.82
2018-08-17T03:14:12.220Z,10.88
2018-08-17T03:16:42.235Z,11.83
2018-08-17T03:19:12.234Z,11.88
2018-08-17T03:21:42.147Z,12.23
2018-08-17T03:24:12.180Z,13.85
2018-08-17T03:26:42.172Z,13.70
2018-08-17T03:29:12.214Z,14.28
2018-08-17T03:31:42.370Z,13.53
2018-08-17T03:34:12.327Z,13.68
2018-08-17T03:36:42.314Z,14.78
2018-08-17T03:39:12.196Z,14.85
2018-08-17T03:41:42.134Z,13.25
2018-08-17T03:44:12.250Z,12.82
2018-08-17T03:46:42.174Z,12.70
2018-08-17T03:49:12.246Z,13.22
2018-08-17T03:51:42.278Z,12.80
2018-08-17T03:54:12.331Z,13.50
2018-08-17T03:56:42.212Z,13.40
2018-08-17T03:59:12.287Z,12.88
2018-08-17T04:01:42.274Z,13.35
2018-08-17T04:04:12.323Z,13.13
2018-08-17T04:06:42.343Z,11.88
2018-08-17T04:09:12.531Z,12.70
2018-08-17T04:11:42.568Z,15.15
2018-08-17T04:14:12.386Z,15.63
2018-08-17T04:16:42.291Z,16.10
2018-08-17T04:19:12.318Z,15.83
2018-08-17T04:21:42.322Z,16.77
2018-08-17T04:24:12.361Z,15.97
2018-08-17T04:26:42.378Z,15.63
2018-08-17T04:29:12.862Z,16.97
2018-08-17T04:31:42.300Z,15.75
2018-08-17T04:34:12.375Z,15.35
2018-08-17T04:36:42.387Z,14.75
2018-08-17T04:39:12.849Z,15.53
2018-08-17T04:41:42.394Z,16.05
2018-08-17T04:44:12.685Z,15.38
2018-08-17T04:46:42.316Z,15.55
2018-08-17T04:49:12.342Z,15.85
2018-08-17T04:51:42.417Z,14.75
2018-08-17T04:54:12.430Z,15.65
2018-08-17T04:56:42.481Z,14.90
2018-08-17T04:59:12.422Z,15.23
2018-08-17T05:01:42.461Z,14.15
2018-08-17T05:04:12.452Z,13.78
2018-08-17T05:06:42.462Z,14.75
2018-08-17T05:09:12.398Z,13.30
2018-08-17T05:11:42.474Z,13.20
2018-08-17T05:14:12.498Z,13.03
2018-08-17T05:16:42.390Z,14.50
2018-08-17T05:19:12.546Z,14.23
2018-08-17T05:21:42.442Z,14.35
2018-08-17T05:24:12.475Z,15.10
2018-08-17T05:26:42.518Z,13.55
2018-08-17T05:29:12.516Z,13.38
2018-08-17T05:31:42.828Z,14.93
2018-08-17T05:34:12.686Z,14.07
2018-08-17T05:36:42.493Z,13.90
2018-08-17T05:39:12.505Z,15.70
2018-08-17T05:41:42.478Z,16.35
2018-08-17T05:44:12.470Z,15.23
2018-08-17T05:46:42.598Z,15.03
2018-08-17T05:49:12.627Z,16.95
2018-08-17T05:51:42.491Z,19.90
2018-08-17T05:54:12.535Z,18.85
2018-08-17T05:56:42.696Z,18.35
2018-08-17T05:59:12.544Z,19.65
2018-08-17T06:01:42.909Z,19.12
2018-08-17T06:04:12.646Z,19.95
2018-08-17T06:06:42.638Z,19.25
2018-08-17T06:09:12.776Z,18.82
2018-08-17T06:11:42.640Z,18.40
2018-08-17T06:14:12.544Z,20.77
2018-08-17T06:16:42.588Z,20.77
2018-08-17T06:19:12.670Z,20.37
2018-08-17T06:21:42.582Z,20.32
2018-08-17T06:24:12.708Z,18.80
2018-08-17T06:26:42.725Z,17.92
2018-08-17T06:29:12.605Z,17.52
2018-08-17T06:31:42.758Z,15.28
2018-08-17T06:34:12.646Z,16.17
2018-08-17T06:36:42.718Z,16.52
2018-08-17T06:39:12.742Z,15.58
2018-08-17T06:41:42.705Z,15.50
2018-08-17T06:44:12.823Z,16.20
2018-08-17T06:46:42.678Z,15.53
2018-08-17T06:49:12.702Z,14.18
2018-08-17T06:51:42.715Z,15.98
2018-08-17T06:54:12.625Z,14.10
2018-08-17T06:56:43.223Z,12.93
2018-08-17T06:59:12.807Z,12.37
2018-08-17T07:01:42.701Z,10.88
2018-08-17T07:04:12.871Z,11.80
2018-08-17T07:06:42.772Z,11.25
2018-08-17T07:09:12.822Z,11.03
2018-08-17T07:11:42.838Z,10.70
2018-08-17T07:14:12.687Z,9.90
2018-08-17T07:16:42.913Z,9.05
2018-08-17T07:19:12.670Z,9.38
2018-08-17T07:21:42.818Z,7.58
2018-08-17T07:24:12.740Z,7.60
2018-08-17T07:26:42.807Z,7.97
2018-08-17T07:29:12.692Z,7.20
2018-08-17T07:31:42.841Z,8.58
2018-08-17T07:34:12.763Z,8.25
2018-08-17T07:36:42.746Z,7.47
2018-08-17T07:39:12.821Z,6.75
2018-08-17T07:41:42.911Z,7.33
2018-08-17T07:44:12.822Z,8.07
2018-08-17T07:46:42.858Z,7.28
2018-08-17T07:49:12.822Z,6.42
2018-08-17T07:51:42.808Z,6.50
2018-08-17T07:54:12.854Z,6.47
2018-08-17T07:56:42.736Z,6.63
2018-08-17T07:59:12.861Z,7.47
2018-08-17T08:01:43.190Z,5.92
2018-08-17T08:04:12.807Z,6.03
2018-08-17T08:06:42.865Z,5.62
2018-08-17T08:09:12.781Z,4.62
2018-08-17T08:11:43.000Z,4.58
2018-08-17T08:14:12.914Z,4.55
2018-08-17T08:16:42.919Z,4.35
2018-08-17T08:19:14.035Z,4.30
2018-08-17T08:21:49.747Z,3.47
2018-08-17T08:24:19.996Z,3.80
2018-08-17T08:26:49.382Z,5.83
2018-08-17T08:29:18.774Z,5.17
2018-08-17T08:31:48.059Z,4.85
2018-08-17T08:34:17.445Z,6.08
2018-08-17T08:36:46.771Z,5.10
2018-08-17T08:39:16.110Z,4.93
2018-08-17T08:41:45.547Z,5.00
2018-08-17T08:44:14.879Z,4.42
2018-08-17T08:46:44.249Z,4.83
2018-08-17T08:49:13.653Z,4.47
2018-08-17T08:51:42.990Z,4.53
2018-08-17T08:54:13.109Z,4.92
2018-08-17T08:56:42.926Z,4.97
2018-08-17T08:59:12.903Z,4.90
2018-08-17T09:01:43.039Z,5.40
2018-08-17T09:04:12.938Z,4.90
2018-08-17T09:06:43.099Z,5.03
2018-08-17T09:09:13.095Z,5.10
2018-08-17T09:11:43.000Z,5.60
2018-08-17T09:14:12.970Z,4.45
2018-08-17T09:16:43.022Z,4.97
2018-08-17T09:19:12.987Z,4.90
2018-08-17T09:21:43.063Z,4.90
2018-08-17T09:24:13.106Z,4.85
2018-08-17T09:26:43.149Z,4.90
2018-08-17T09:29:13.030Z,5.30
2018-08-17T09:31:43.107Z,4.65
2018-08-17T09:34:13.029Z,5.17
2018-08-17T09:36:43.025Z,4.85
2018-08-17T09:39:13.051Z,4.90
2018-08-17T09:41:43.180Z,4.50
2018-08-17T09:44:13.058Z,4.60
2018-08-17T09:46:43.069Z,5.08
2018-08-17T09:49:13.071Z,4.97
2018-08-17T09:51:43.038Z,4.83
2018-08-17T09:54:13.159Z,4.65
2018-08-17T09:56:43.613Z,4.65
2018-08-17T09:59:13.042Z,4.65
2018-08-17T10:04:28.243Z,5.13
2018-08-17T10:07:02.770Z,5.03
2018-08-17T10:09:37.282Z,4.08
2018-08-17T10:12:06.736Z,4.27
2018-08-17T10:14:36.074Z,4.00
2018-08-17T10:17:05.459Z,4.73
2018-08-17T10:19:34.840Z,4.53
2018-08-17T10:22:04.507Z,3.77
2018-08-17T10:24:33.652Z,3.90
2018-08-17T10:27:02.931Z,4.10
2018-08-17T10:29:32.230Z,3.43
2018-08-17T10:32:01.618Z,3.60
2018-08-17T10:34:30.944Z,4.23
2018-08-17T10:37:00.251Z,3.83
2018-08-17T10:39:29.579Z,3.77
2018-08-17T10:41:58.910Z,4.27
2018-08-17T10:44:35.010Z,3.90
2018-08-17T10:47:04.439Z,4.23
2018-08-17T10:49:33.769Z,4.43
2018-08-17T10:52:03.148Z,4.17
2018-08-17T10:54:32.552Z,4.47
2018-08-17T10:57:02.892Z,4.67
2018-08-17T10:59:32.227Z,4.58
2018-08-17T11:02:01.550Z,4.77
2018-08-17T11:04:30.950Z,4.50
2018-08-17T11:07:01.139Z,4.43
2018-08-17T11:09:30.476Z,5.03
2018-08-17T11:11:59.786Z,4.60
2018-08-17T11:14:29.222Z,5.03
2018-08-17T11:16:58.531Z,5.07
2018-08-17T11:19:27.832Z,5.60
2018-08-17T11:21:57.226Z,5.27
2018-08-17T11:24:26.618Z,5.33
2018-08-17T11:26:55.943Z,5.37
2018-08-17T11:29:25.315Z,5.17
2018-08-17T11:31:54.625Z,4.97
2018-08-17T11:34:23.967Z,5.17
2018-08-17T11:36:53.298Z,5.70
2018-08-17T11:39:22.597Z,5.27
2018-08-17T11:41:51.990Z,5.07
2018-08-17T11:44:21.335Z,5.37
2018-08-17T11:46:50.685Z,5.10
2018-08-17T11:49:20.058Z,5.43
2018-08-17T11:51:49.402Z,5.23
2018-08-17T11:54:18.794Z,5.20
2018-08-17T11:56:48.135Z,4.83
2018-08-17T11:59:17.468Z,5.15
2018-08-17T12:01:46.969Z,5.23
2018-08-17T12:04:16.302Z,5.30
2018-08-17T12:06:45.703Z,4.57
2018-08-17T12:09:15.083Z,4.70
2018-08-17T12:11:44.430Z,4.63
2018-08-17T12:14:13.749Z,4.37
2018-08-17T12:16:43.335Z,4.78
2018-08-17T12:19:13.750Z,5.67
2018-08-17T12:21:43.460Z,5.40
2018-08-17T12:24:13.509Z,5.00
2018-08-17T12:26:48.772Z,6.15
2018-08-17T12:29:18.064Z,5.10
2018-08-17T12:31:47.415Z,5.62
2018-08-17T12:34:17.213Z,7.40
2018-08-17T12:36:46.530Z,8.57
2018-08-17T12:39:15.891Z,7.47
2018-08-17T12:41:45.271Z,8.30
2018-08-17T12:44:14.645Z,5.87
2018-08-17T12:46:44.018Z,8.00
2018-08-17T12:49:13.456Z,9.00
2018-08-17T12:51:43.494Z,9.25
2018-08-17T12:54:18.734Z,8.35
2018-08-17T12:56:48.491Z,8.97
2018-08-17T12:59:17.841Z,8.90
2018-08-17T13:01:47.207Z,9.70
2018-08-17T13:04:16.774Z,8.97
2018-08-17T13:06:46.116Z,8.10
2018-08-17T13:09:15.467Z,7.73
2018-08-17T13:11:50.247Z,8.13
2018-08-17T13:14:19.562Z,6.80
2018-08-17T13:16:48.960Z,7.50
2018-08-17T13:19:18.313Z,8.70
2018-08-17T13:21:47.671Z,8.20
2018-08-17T13:24:17.064Z,7.43
2018-08-17T13:26:46.832Z,7.30
2018-08-17T13:29:16.323Z,6.07
2018-08-17T13:31:45.699Z,6.87
2018-08-17T13:34:15.017Z,6.57
2018-08-17T13:36:44.435Z,6.70
2018-08-17T13:39:14.806Z,7.70
2018-08-17T13:41:44.150Z,8.97
2018-08-17T13:44:13.692Z,8.78
2018-08-17T13:46:43.586Z,9.10
2018-08-17T13:49:13.614Z,9.40
2018-08-17T13:51:43.577Z,7.33
2018-08-17T13:54:13.644Z,6.42
2018-08-17T13:56:43.645Z,5.10
2018-08-17T13:59:13.572Z,3.85
2018-08-17T14:01:43.565Z,3.77
2018-08-17T14:04:13.661Z,3.60
2018-08-17T14:06:43.604Z,3.08
2018-08-17T14:09:13.734Z,3.20
2018-08-17T14:11:43.646Z,3.77
2018-08-17T14:14:13.617Z,3.50
2018-08-17T14:16:43.599Z,4.42
2018-08-17T14:19:13.642Z,3.52
2018-08-17T14:21:43.612Z,3.20
2018-08-17T14:24:13.664Z,2.58
2018-08-17T14:26:43.674Z,2.90
2018-08-17T14:29:13.720Z,2.95
2018-08-17T14:31:44.822Z,3.22
2018-08-17T14:34:14.140Z,2.90
2018-08-17T14:36:43.927Z,2.60
2018-08-17T14:39:13.766Z,2.50
2018-08-17T14:42:01.402Z,2.42
2018-08-17T14:44:31.119Z,2.67
2018-08-17T14:47:00.490Z,2.43
2018-08-17T14:49:29.877Z,2.70
2018-08-17T14:51:59.247Z,2.50
2018-08-17T14:54:28.613Z,3.08
2018-08-17T14:56:58.011Z,2.47
2018-08-17T14:59:27.359Z,2.58
2018-08-17T15:01:56.760Z,2.72
2018-08-17T15:04:26.103Z,3.00
2018-08-17T15:06:55.502Z,2.77
2018-08-17T15:09:24.833Z,2.57
2018-08-17T15:11:54.126Z,2.50
2018-08-17T15:14:23.511Z,2.05
2018-08-17T15:16:52.815Z,2.13
2018-08-17T15:19:22.121Z,2.10
2018-08-17T15:21:51.870Z,1.60
2018-08-17T15:24:21.178Z,1.80
2018-08-17T15:26:50.507Z,1.77
2018-08-17T15:29:19.862Z,1.70
2018-08-17T15:31:49.197Z,1.70
2018-08-17T15:34:18.512Z,1.80
2018-08-17T15:36:47.912Z,1.50
2018-08-17T15:39:17.228Z,1.57
2018-08-17T15:41:46.765Z,1.50
2018-08-17T15:44:24.341Z,1.60
2018-08-17T15:46:54.453Z,1.50
2018-08-17T15:49:29.035Z,1.73
2018-08-17T15:51:58.591Z,1.90
2018-08-17T15:54:27.956Z,1.80
2018-08-17T15:56:57.353Z,1.47
2018-08-17T15:59:26.712Z,2.00
2018-08-17T16:01:56.085Z,1.70
2018-08-17T16:04:25.577Z,1.62
2018-08-17T16:06:54.933Z,1.77
2018-08-17T16:09:25.072Z,1.53
2018-08-17T16:11:54.382Z,1.73
2018-08-17T16:14:23.699Z,2.03
2018-08-17T16:16:52.992Z,1.50
2018-08-17T16:19:22.271Z,10.90
2018-08-17T16:21:51.567Z,3.13
2018-08-17T16:24:20.893Z,2.63
2018-08-17T16:26:50.161Z,2.53
2018-08-17T16:29:19.458Z,5.07
2018-08-17T16:31:48.762Z,2.58
2018-08-17T16:34:18.081Z,3.92
2018-08-17T16:36:47.389Z,2.87
2018-08-17T16:39:17.554Z,3.37
2018-08-17T16:41:46.854Z,2.70
2018-08-17T16:44:16.152Z,2.40
2018-08-17T16:46:45.439Z,1.53
2018-08-17T16:49:14.779Z,1.40
2018-08-17T16:51:44.054Z,1.20
2018-08-17T16:54:13.907Z,1.23
2018-08-17T16:56:44.046Z,1.12
2018-08-17T16:59:14.016Z,1.40
2018-08-17T17:01:43.953Z,1.50
2018-08-17T17:04:13.999Z,1.32
2018-08-17T17:06:44.184Z,1.55
2018-08-17T17:09:13.955Z,1.60
2018-08-17T17:11:44.087Z,1.40
2018-08-17T17:14:14.178Z,1.47
2018-08-17T17:16:47.861Z,1.27
2018-08-17T17:19:19.890Z,2.17
2018-08-17T17:21:50.242Z,1.63
2018-08-17T17:24:20.014Z,1.50
2018-08-17T17:26:49.309Z,1.70
2018-08-17T17:29:18.595Z,1.32
2018-08-17T17:31:51.198Z,1.40
2018-08-17T17:34:20.503Z,1.77
2018-08-17T17:36:49.842Z,1.52
2018-08-17T17:39:19.185Z,1.57
2018-08-17T17:41:48.560Z,1.42
2018-08-17T17:44:17.876Z,1.50
2018-08-17T17:46:47.163Z,1.60
2018-08-17T17:49:16.514Z,1.97
2018-08-17T17:51:46.188Z,1.73
2018-08-17T17:54:24.477Z,2.23
2018-08-17T17:56:59.679Z,1.67
2018-08-17T17:59:29.022Z,1.77
2018-08-17T18:01:58.465Z,1.73
2018-08-17T18:04:31.924Z,1.97
2018-08-17T18:07:01.626Z,2.35
2018-08-17T18:09:30.981Z,1.80
2018-08-17T18:12:00.388Z,1.80
2018-08-17T18:14:29.734Z,1.50
2018-08-17T18:16:59.105Z,1.90
2018-08-17T18:19:28.466Z,1.70
2018-08-17T18:21:57.827Z,2.10
2018-08-17T18:24:27.164Z,1.87
2018-08-17T18:26:56.460Z,2.00
2018-08-17T18:29:25.773Z,1.97
2018-08-17T18:31:55.163Z,1.80
2018-08-17T18:34:24.510Z,2.37
2018-08-17T18:36:53.789Z,2.27
2018-08-17T18:39:23.734Z,2.52
2018-08-17T18:41:53.054Z,2.27
2018-08-17T18:44:22.368Z,2.27
2018-08-17T18:46:51.685Z,1.97
2018-08-17T18:49:21.008Z,2.33
2018-08-17T18:51:50.310Z,2.00
2018-08-17T18:54:21.072Z,1.83
2018-08-17T18:56:50.368Z,1.97
2018-08-17T18:59:19.746Z,1.92
2018-08-17T19:01:48.995Z,1.82
2018-08-17T19:04:18.319Z,2.50
2018-08-17T19:06:47.661Z,2.23
2018-08-17T19:09:16.994Z,1.97
2018-08-17T19:11:46.332Z,2.47
2018-08-17T19:14:15.594Z,2.50
2018-08-17T19:16:44.911Z,2.43
2018-08-17T19:19:14.394Z,2.47
2018-08-17T19:21:44.250Z,2.30
2018-08-17T19:24:14.346Z,2.72
2018-08-17T19:26:44.306Z,2.70
2018-08-17T19:29:14.266Z,3.05
2018-08-17T19:31:50.309Z,2.77
2018-08-17T19:34:19.658Z,2.80
2018-08-17T19:36:48.994Z,2.52
2018-08-17T19:39:26.250Z,2.63
2018-08-17T19:41:55.715Z,2.53
2018-08-17T19:44:25.015Z,2.60
2018-08-17T19:46:54.573Z,2.80
2018-08-17T19:49:23.858Z,2.70
2018-08-17T19:51:53.142Z,2.80
2018-08-17T19:54:22.478Z,3.20
2018-08-17T19:56:51.753Z,2.50
2018-08-17T19:59:21.049Z,3.20
2018-08-17T20:01:50.394Z,3.20
2018-08-17T20:04:19.662Z,2.90
2018-08-17T20:06:48.961Z,3.20
2018-08-17T20:09:18.246Z,3.47
2018-08-17T20:11:47.590Z,2.80
2018-08-17T20:14:16.886Z,3.10
2018-08-17T20:16:46.231Z,2.80
2018-08-17T20:19:15.577Z,3.00
2018-08-17T20:21:44.861Z,2.83
2018-08-17T20:24:14.369Z,3.15
2018-08-17T20:26:44.544Z,3.40
2018-08-17T20:29:14.361Z,3.27
2018-08-17T20:31:45.345Z,2.90
2018-08-17T20:34:14.617Z,3.40
2018-08-17T20:36:44.449Z,3.50
2018-08-17T20:39:14.478Z,3.08
2018-08-17T20:41:44.439Z,2.90
2018-08-17T20:44:14.518Z,2.98
2018-08-17T20:46:44.446Z,2.70
2018-08-17T20:49:14.433Z,2.95
2018-08-17T20:51:48.914Z,2.90
2018-08-17T20:54:18.224Z,3.10
2018-08-17T20:56:47.546Z,3.17
2018-08-17T20:59:16.988Z,3.00
2018-08-17T21:01:46.287Z,3.03
2018-08-17T21:04:15.558Z,3.00
2018-08-17T21:06:44.851Z,3.37
2018-08-17T21:09:14.522Z,3.47
2018-08-17T21:11:44.540Z,4.23
2018-08-17T21:14:14.613Z,3.98
2018-08-17T21:16:44.561Z,4.30
2018-08-17T21:19:14.603Z,4.00
2018-08-17T21:21:44.743Z,4.03
2018-08-17T21:24:14.530Z,5.10
2018-08-17T21:26:44.570Z,5.28
2018-08-17T21:29:14.681Z,5.30
2018-08-17T21:31:44.635Z,5.20
2018-08-17T21:34:14.558Z,4.70
2018-08-17T21:36:44.550Z,5.10
2018-08-17T21:39:17.201Z,4.75
2018-08-17T21:41:47.908Z,5.10
2018-08-17T21:44:21.069Z,5.50
2018-08-17T21:46:54.948Z,5.30
2018-08-17T21:49:25.402Z,5.70
2018-08-17T21:51:59.624Z,5.78
2018-08-17T21:54:34.946Z,5.73
2018-08-17T21:57:04.778Z,5.70
2018-08-17T21:59:39.293Z,5.83
2018-08-17T22:02:10.997Z,5.42
2018-08-17T22:04:40.336Z,5.60
2018-08-17T22:07:14.859Z,5.20
2018-08-17T22:09:44.697Z,5.70
2018-08-17T22:12:14.681Z,5.10
2018-08-17T22:14:46.057Z,5.20
2018-08-17T22:17:33.271Z,5.23
2018-08-17T22:20:02.819Z,5.33
2018-08-17T22:22:32.204Z,5.80
2018-08-17T22:25:04.220Z,6.15
2018-08-17T22:27:33.532Z,5.93
2018-08-17T22:30:02.901Z,6.03
2018-08-17T22:32:32.194Z,5.27
2018-08-17T22:35:01.510Z,4.80
2018-08-17T22:37:30.851Z,4.27
2018-08-17T22:40:00.167Z,4.40
2018-08-17T22:42:29.522Z,4.47
2018-08-17T22:44:58.772Z,4.97
2018-08-17T22:47:28.966Z,4.10
2018-08-17T22:50:00.977Z,4.73
2018-08-17T22:52:34.909Z,4.80
2018-08-17T22:55:07.605Z,4.83
2018-08-17T22:57:36.966Z,4.70
2018-08-17T23:00:21.455Z,4.90
2018-08-17T23:02:51.948Z,5.10
2018-08-17T23:05:24.598Z,5.33
2018-08-17T23:07:53.982Z,6.07
2018-08-17T23:10:24.502Z,5.87
2018-08-17T23:12:54.448Z,5.67
2018-08-17T23:15:23.802Z,5.80
2018-08-17T23:17:55.345Z,5.47
2018-08-17T23:20:29.800Z,4.90
2018-08-17T23:23:00.290Z,4.70
2018-08-17T23:25:29.746Z,4.53
2018-08-17T23:27:59.025Z,4.20
2018-08-17T23:30:28.420Z,3.80
2018-08-17T23:32:57.818Z,3.67
2018-08-17T23:35:27.118Z,4.30
2018-08-17T23:37:56.491Z,4.10
2018-08-17T23:40:25.834Z,4.05
2018-08-17T23:42:55.172Z,3.70
2018-08-17T23:45:24.573Z,3.60
2018-08-17T23:47:53.953Z,4.37
2018-08-17T23:50:23.270Z,4.03
2018-08-17T23:52:52.595Z,4.17
2018-08-17T23:55:22.430Z,4.50
2018-08-17T23:57:51.745Z,3.90
